Center Grove, Iowa
Current Conditions -  °F | °C
As of 8:53 AM on Saturday 20 Dec 2014 (Local Time) from KDBQ Reporting Station
Haze Haze  
Wind Chill: 19°   Ceiling: 2400
Heat Index: 27°   Visibility: 4mi
Dew Point: 24°   Wind: 7mph
Humidity: 89%   Direction: 140°SE
Pressure: 30.22"   Gusts: NA
Location:  42.549°N, 90.6988°W
Report Text: KDBQ 201453Z 14006KT 4SM BR OVC024 M03/M04 A3022 RMK AO2 SLP251 T10281044 53001
Loading
Personal Weather Stations






























Interactive Weather Map New forecast layout! Learn more

10-Day Weather Forecast

Advertisements
Track Severe Weather on mobile